Terminal Aerodrome Forecast
Issued by NWS Sioux Falls, SD

Home | Current Version | Previous Version | Graphics & Text | Print | Product List | Glossary On
Versions: 1 2 3 4 5 6 7 8 9 10 11 12 13 14 15
000
FTUS43 KFSD 251610 AAB
TAFFSD
TAF AMD
KFSD 251610Z 2516/2612 08013KT 5SM -SN FEW010 OVC035
     FM251700 02016G24KT 3SM -SN FEW010 OVC025
      TEMPO 2517/2520 2SM -SN
     FM252100 35015G22KT P6SM BKN020 BKN070
     FM260600 34012KT P6SM SCT020=

USA.gov is the U.S. government's official web portal to all federal, state and local government web resources and services.